sensor_id;sensor_type;location;lat;lon;timestamp;P1;durP1;ratioP1;P2;durP2;ratioP2
62711;SDS011;48772;55.586;37.730;2023-03-24T00:00:17;12.40;;;7.57;;
62711;SDS011;48772;55.586;37.730;2023-03-24T00:02:45;13.13;;;8.63;;
62711;SDS011;48772;55.586;37.730;2023-03-24T00:05:16;9.82;;;7.10;;
62711;SDS011;48772;55.586;37.730;2023-03-24T00:07:44;11.48;;;7.57;;
62711;SDS011;48772;55.586;37.730;2023-03-24T00:10:12;13.30;;;8.13;;
62711;SDS011;48772;55.586;37.730;2023-03-24T00:12:40;13.43;;;8.48;;
62711;SDS011;48772;55.586;37.730;2023-03-24T00:15:08;9.90;;;6.30;;
62711;SDS011;48772;55.586;37.730;2023-03-24T00:17:37;12.52;;;7.55;;
62711;SDS011;48772;55.586;37.730;2023-03-24T00:20:08;14.55;;;7.80;;
62711;SDS011;48772;55.586;37.730;2023-03-24T00:22:42;12.73;;;8.25;;
62711;SDS011;48772;55.586;37.730;2023-03-24T00:25:17;11.93;;;7.03;;
62711;SDS011;48772;55.586;37.730;2023-03-24T00:27:45;9.55;;;6.63;;
62711;SDS011;48772;55.586;37.730;2023-03-24T00:30:13;11.27;;;8.00;;
62711;SDS011;48772;55.586;37.730;2023-03-24T00:32:40;10.73;;;6.30;;
62711;SDS011;48772;55.586;37.730;2023-03-24T00:35:07;10.00;;;6.53;;
62711;SDS011;48772;55.586;37.730;2023-03-24T00:37:34;9.70;;;6.78;;
62711;SDS011;48772;55.586;37.730;2023-03-24T00:40:05;9.85;;;7.47;;
62711;SDS011;48772;55.586;37.730;2023-03-24T00:42:35;12.23;;;7.40;;
62711;SDS011;48772;55.586;37.730;2023-03-24T00:45:02;9.95;;;7.00;;
62711;SDS011;48772;55.586;37.730;2023-03-24T00:47:30;7.55;;;5.78;;
62711;SDS011;48772;55.586;37.730;2023-03-24T00:50:02;12.10;;;7.93;;
62711;SDS011;48772;55.586;37.730;2023-03-24T00:52:30;8.73;;;6.18;;
62711;SDS011;48772;55.586;37.730;2023-03-24T00:54:59;9.55;;;6.85;;
62711;SDS011;48772;55.586;37.730;2023-03-24T00:57:26;13.75;;;9.25;;
62711;SDS011;48772;55.586;37.730;2023-03-24T00:59:54;10.90;;;6.85;;
62711;SDS011;48772;55.586;37.730;2023-03-24T01:02:22;10.50;;;6.43;;
62711;SDS011;48772;55.586;37.730;2023-03-24T01:04:53;18.40;;;7.35;;
62711;SDS011;48772;55.586;37.730;2023-03-24T01:07:22;8.88;;;5.95;;
62711;SDS011;48772;55.586;37.730;2023-03-24T01:09:49;14.00;;;7.13;;
62711;SDS011;48772;55.586;37.730;2023-03-24T01:12:31;13.60;;;8.70;;
62711;SDS011;48772;55.586;37.730;2023-03-24T01:15:00;12.80;;;6.60;;
62711;SDS011;48772;55.586;37.730;2023-03-24T01:17:27;8.70;;;5.95;;
62711;SDS011;48772;55.586;37.730;2023-03-24T01:19:54;11.88;;;8.05;;
62711;SDS011;48772;55.586;37.730;2023-03-24T01:22:20;10.25;;;7.72;;
62711;SDS011;48772;55.586;37.730;2023-03-24T01:24:50;10.82;;;6.97;;
62711;SDS011;48772;55.586;37.730;2023-03-24T01:27:17;9.98;;;6.15;;
62711;SDS011;48772;55.586;37.730;2023-03-24T01:29:43;10.98;;;6.80;;
62711;SDS011;48772;55.586;37.730;2023-03-24T01:32:09;13.00;;;8.15;;
62711;SDS011;48772;55.586;37.730;2023-03-24T01:34:35;12.55;;;8.18;;
62711;SDS011;48772;55.586;37.730;2023-03-24T01:37:02;11.98;;;6.95;;
62711;SDS011;48772;55.586;37.730;2023-03-24T01:39:28;10.70;;;6.70;;
62711;SDS011;48772;55.586;37.730;2023-03-24T01:41:54;10.07;;;6.30;;
62711;SDS011;48772;55.586;37.730;2023-03-24T01:44:25;11.13;;;7.07;;
62711;SDS011;48772;55.586;37.730;2023-03-24T01:46:52;13.35;;;8.52;;
62711;SDS011;48772;55.586;37.730;2023-03-24T01:49:18;12.30;;;7.97;;
62711;SDS011;48772;55.586;37.730;2023-03-24T01:51:46;13.00;;;8.38;;
62711;SDS011;48772;55.586;37.730;2023-03-24T01:57:05;14.40;;;9.20;;
62711;SDS011;48772;55.586;37.730;2023-03-24T01:59:35;9.80;;;6.72;;
62711;SDS011;48772;55.586;37.730;2023-03-24T02:02:21;13.60;;;8.63;;
62711;SDS011;48772;55.586;37.730;2023-03-24T02:04:53;12.25;;;7.85;;
62711;SDS011;48772;55.586;37.730;2023-03-24T02:10:07;11.48;;;7.65;;
62711;SDS011;48772;55.586;37.730;2023-03-24T02:12:38;12.43;;;7.35;;
62711;SDS011;48772;55.586;37.730;2023-03-24T02:15:07;13.25;;;8.90;;
62711;SDS011;48772;55.586;37.730;2023-03-24T02:17:41;12.52;;;7.40;;
62711;SDS011;48772;55.586;37.730;2023-03-24T02:26:15;14.63;;;8.95;;
62711;SDS011;48772;55.586;37.730;2023-03-24T02:32:19;14.60;;;8.15;;
62711;SDS011;48772;55.586;37.730;2023-03-24T02:40:46;10.38;;;5.72;;
62711;SDS011;48772;55.586;37.730;2023-03-24T02:46:55;14.52;;;7.18;;
62711;SDS011;48772;55.586;37.730;2023-03-24T02:49:52;13.55;;;9.05;;
62711;SDS011;48772;55.586;37.730;2023-03-24T02:52:31;12.93;;;8.52;;
62711;SDS011;48772;55.586;37.730;2023-03-24T02:55:15;13.00;;;8.60;;
62711;SDS011;48772;55.586;37.730;2023-03-24T02:57:50;14.05;;;8.07;;
62711;SDS011;48772;55.586;37.730;2023-03-24T03:00:57;13.18;;;8.07;;
62711;SDS011;48772;55.586;37.730;2023-03-24T03:04:15;13.02;;;7.90;;
62711;SDS011;48772;55.586;37.730;2023-03-24T03:06:48;13.43;;;8.20;;
62711;SDS011;48772;55.586;37.730;2023-03-24T03:09:20;15.25;;;9.52;;
62711;SDS011;48772;55.586;37.730;2023-03-24T03:11:57;12.15;;;8.30;;
62711;SDS011;48772;55.586;37.730;2023-03-24T03:17:23;13.57;;;8.20;;
62711;SDS011;48772;55.586;37.730;2023-03-24T03:23:17;10.88;;;6.63;;
62711;SDS011;48772;55.586;37.730;2023-03-24T03:25:27;14.65;;;8.85;;
62711;SDS011;48772;55.586;37.730;2023-03-24T03:27:59;12.60;;;8.65;;
62711;SDS011;48772;55.586;37.730;2023-03-24T03:30:32;15.90;;;9.25;;
62711;SDS011;48772;55.586;37.730;2023-03-24T03:33:05;10.27;;;7.07;;
62711;SDS011;48772;55.586;37.730;2023-03-24T03:35:53;15.18;;;9.18;;
62711;SDS011;48772;55.586;37.730;2023-03-24T03:41:19;8.20;;;4.93;;
62711;SDS011;48772;55.586;37.730;2023-03-24T03:43:47;13.57;;;8.23;;
62711;SDS011;48772;55.586;37.730;2023-03-24T03:46:14;12.43;;;8.00;;
62711;SDS011;48772;55.586;37.730;2023-03-24T03:48:42;12.65;;;7.15;;
62711;SDS011;48772;55.586;37.730;2023-03-24T03:51:09;16.10;;;10.77;;
62711;SDS011;48772;55.586;37.730;2023-03-24T03:53:46;13.35;;;8.07;;
62711;SDS011;48772;55.586;37.730;2023-03-24T03:56:19;14.70;;;10.05;;
62711;SDS011;48772;55.586;37.730;2023-03-24T03:59:02;16.60;;;9.70;;
62711;SDS011;48772;55.586;37.730;2023-03-24T04:01:31;17.15;;;10.20;;
62711;SDS011;48772;55.586;37.730;2023-03-24T04:10:33;16.55;;;10.70;;
62711;SDS011;48772;55.586;37.730;2023-03-24T04:22:19;17.90;;;11.05;;
62711;SDS011;48772;55.586;37.730;2023-03-24T04:36:09;16.10;;;10.90;;
62711;SDS011;48772;55.586;37.730;2023-03-24T04:39:02;15.30;;;8.60;;
62711;SDS011;48772;55.586;37.730;2023-03-24T04:41:36;14.77;;;9.93;;
62711;SDS011;48772;55.586;37.730;2023-03-24T04:44:11;16.77;;;9.95;;
62711;SDS011;48772;55.586;37.730;2023-03-24T04:46:58;17.55;;;10.73;;
62711;SDS011;48772;55.586;37.730;2023-03-24T04:49:26;16.63;;;11.50;;
62711;SDS011;48772;55.586;37.730;2023-03-24T04:51:52;14.93;;;9.55;;
62711;SDS011;48772;55.586;37.730;2023-03-24T04:54:24;18.35;;;12.73;;
62711;SDS011;48772;55.586;37.730;2023-03-24T04:56:57;18.30;;;11.88;;
62711;SDS011;48772;55.586;37.730;2023-03-24T04:59:32;16.52;;;12.13;;
62711;SDS011;48772;55.586;37.730;2023-03-24T05:02:00;16.10;;;10.05;;
62711;SDS011;48772;55.586;37.730;2023-03-24T05:04:27;16.95;;;10.40;;
62711;SDS011;48772;55.586;37.730;2023-03-24T05:06:58;20.75;;;13.02;;
62711;SDS011;48772;55.586;37.730;2023-03-24T05:09:25;22.10;;;14.75;;
62711;SDS011;48772;55.586;37.730;2023-03-24T05:11:51;22.17;;;11.98;;
62711;SDS011;48772;55.586;37.730;2023-03-24T05:14:18;21.23;;;11.70;;
62711;SDS011;48772;55.586;37.730;2023-03-24T05:16:45;23.17;;;14.00;;
62711;SDS011;48772;55.586;37.730;2023-03-24T05:19:11;21.65;;;12.98;;
62711;SDS011;48772;55.586;37.730;2023-03-24T05:21:38;14.57;;;8.70;;
62711;SDS011;48772;55.586;37.730;2023-03-24T05:24:04;24.77;;;15.93;;
62711;SDS011;48772;55.586;37.730;2023-03-24T05:26:33;17.50;;;11.90;;
62711;SDS011;48772;55.586;37.730;2023-03-24T05:29:07;16.10;;;11.45;;
62711;SDS011;48772;55.586;37.730;2023-03-24T05:31:33;24.67;;;16.05;;
62711;SDS011;48772;55.586;37.730;2023-03-24T05:34:06;26.85;;;15.85;;
62711;SDS011;48772;55.586;37.730;2023-03-24T05:36:42;21.75;;;12.32;;
62711;SDS011;48772;55.586;37.730;2023-03-24T05:39:08;21.75;;;13.38;;
62711;SDS011;48772;55.586;37.730;2023-03-24T05:41:43;21.20;;;11.52;;
62711;SDS011;48772;55.586;37.730;2023-03-24T05:44:09;23.40;;;14.35;;
62711;SDS011;48772;55.586;37.730;2023-03-24T05:46:35;24.52;;;14.48;;
62711;SDS011;48772;55.586;37.730;2023-03-24T05:49:03;23.77;;;15.27;;
62711;SDS011;48772;55.586;37.730;2023-03-24T05:51:32;20.08;;;13.25;;
62711;SDS011;48772;55.586;37.730;2023-03-24T05:54:02;24.92;;;13.02;;
62711;SDS011;48772;55.586;37.730;2023-03-24T05:56:34;25.88;;;16.15;;
62711;SDS011;48772;55.586;37.730;2023-03-24T05:59:20;24.58;;;14.10;;
62711;SDS011;48772;55.586;37.730;2023-03-24T06:02:05;22.30;;;14.18;;
62711;SDS011;48772;55.586;37.730;2023-03-24T06:04:41;23.73;;;13.60;;
62711;SDS011;48772;55.586;37.730;2023-03-24T06:07:15;27.52;;;16.45;;
62711;SDS011;48772;55.586;37.730;2023-03-24T06:09:43;21.95;;;13.52;;
62711;SDS011;48772;55.586;37.730;2023-03-24T06:12:12;24.45;;;16.95;;
62711;SDS011;48772;55.586;37.730;2023-03-24T06:14:47;27.05;;;16.67;;
62711;SDS011;48772;55.586;37.730;2023-03-24T06:17:12;23.67;;;13.82;;
62711;SDS011;48772;55.586;37.730;2023-03-24T06:19:40;24.52;;;13.93;;
62711;SDS011;48772;55.586;37.730;2023-03-24T06:22:25;19.75;;;13.30;;
62711;SDS011;48772;55.586;37.730;2023-03-24T06:24:50;26.15;;;16.27;;
62711;SDS011;48772;55.586;37.730;2023-03-24T06:27:18;27.40;;;18.02;;
62711;SDS011;48772;55.586;37.730;2023-03-24T06:29:46;28.67;;;17.60;;
62711;SDS011;48772;55.586;37.730;2023-03-24T06:32:13;20.52;;;12.88;;
62711;SDS011;48772;55.586;37.730;2023-03-24T06:34:42;24.52;;;15.35;;
62711;SDS011;48772;55.586;37.730;2023-03-24T06:37:38;22.67;;;15.07;;
62711;SDS011;48772;55.586;37.730;2023-03-24T06:40:07;27.23;;;15.93;;
62711;SDS011;48772;55.586;37.730;2023-03-24T06:42:40;28.63;;;18.47;;
62711;SDS011;48772;55.586;37.730;2023-03-24T06:45:06;26.73;;;16.85;;
62711;SDS011;48772;55.586;37.730;2023-03-24T06:47:33;22.30;;;13.95;;
62711;SDS011;48772;55.586;37.730;2023-03-24T06:49:59;27.60;;;17.30;;
62711;SDS011;48772;55.586;37.730;2023-03-24T06:52:25;27.13;;;17.15;;
62711;SDS011;48772;55.586;37.730;2023-03-24T06:54:53;25.15;;;16.33;;
62711;SDS011;48772;55.586;37.730;2023-03-24T06:57:19;25.80;;;15.88;;
62711;SDS011;48772;55.586;37.730;2023-03-24T07:00:05;29.45;;;16.95;;
62711;SDS011;48772;55.586;37.730;2023-03-24T07:02:37;15.40;;;9.95;;
62711;SDS011;48772;55.586;37.730;2023-03-24T07:05:05;24.98;;;16.67;;
62711;SDS011;48772;55.586;37.730;2023-03-24T07:07:42;26.15;;;14.80;;
62711;SDS011;48772;55.586;37.730;2023-03-24T07:10:28;20.50;;;14.50;;
62711;SDS011;48772;55.586;37.730;2023-03-24T07:12:54;25.40;;;15.10;;
62711;SDS011;48772;55.586;37.730;2023-03-24T07:15:20;20.92;;;12.27;;
62711;SDS011;48772;55.586;37.730;2023-03-24T07:17:46;17.25;;;11.77;;
62711;SDS011;48772;55.586;37.730;2023-03-24T07:20:34;21.70;;;11.95;;
62711;SDS011;48772;55.586;37.730;2023-03-24T07:23:20;14.77;;;9.43;;
62711;SDS011;48772;55.586;37.730;2023-03-24T07:26:01;19.83;;;12.50;;
62711;SDS011;48772;55.586;37.730;2023-03-24T07:28:45;22.08;;;14.55;;
62711;SDS011;48772;55.586;37.730;2023-03-24T07:31:12;18.13;;;11.93;;
62711;SDS011;48772;55.586;37.730;2023-03-24T07:33:39;16.33;;;10.43;;
62711;SDS011;48772;55.586;37.730;2023-03-24T07:36:06;15.43;;;9.88;;
62711;SDS011;48772;55.586;37.730;2023-03-24T07:38:34;21.48;;;12.15;;
62711;SDS011;48772;55.586;37.730;2023-03-24T07:41:04;19.48;;;12.85;;
62711;SDS011;48772;55.586;37.730;2023-03-24T07:43:33;17.17;;;11.82;;
62711;SDS011;48772;55.586;37.730;2023-03-24T07:46:06;18.02;;;10.43;;
62711;SDS011;48772;55.586;37.730;2023-03-24T07:48:32;12.15;;;8.63;;
62711;SDS011;48772;55.586;37.730;2023-03-24T07:50:58;13.15;;;8.90;;
62711;SDS011;48772;55.586;37.730;2023-03-24T07:53:43;11.70;;;7.68;;
62711;SDS011;48772;55.586;37.730;2023-03-24T07:56:14;16.73;;;11.20;;
62711;SDS011;48772;55.586;37.730;2023-03-24T08:01:22;15.07;;;10.50;;
62711;SDS011;48772;55.586;37.730;2023-03-24T08:03:51;15.32;;;9.63;;
62711;SDS011;48772;55.586;37.730;2023-03-24T08:06:44;8.13;;;5.95;;
62711;SDS011;48772;55.586;37.730;2023-03-24T08:09:10;14.00;;;8.48;;
62711;SDS011;48772;55.586;37.730;2023-03-24T08:11:36;11.00;;;7.65;;
62711;SDS011;48772;55.586;37.730;2023-03-24T08:14:02;13.40;;;8.25;;
62711;SDS011;48772;55.586;37.730;2023-03-24T08:16:28;8.15;;;6.60;;
62711;SDS011;48772;55.586;37.730;2023-03-24T08:18:54;12.38;;;8.95;;
62711;SDS011;48772;55.586;37.730;2023-03-24T08:21:22;16.38;;;10.77;;
62711;SDS011;48772;55.586;37.730;2023-03-24T08:23:48;16.13;;;9.98;;
62711;SDS011;48772;55.586;37.730;2023-03-24T08:26:14;15.30;;;10.75;;
62711;SDS011;48772;55.586;37.730;2023-03-24T08:28:40;12.93;;;7.75;;
62711;SDS011;48772;55.586;37.730;2023-03-24T08:31:06;8.52;;;6.45;;
62711;SDS011;48772;55.586;37.730;2023-03-24T08:33:33;13.10;;;9.30;;
62711;SDS011;48772;55.586;37.730;2023-03-24T08:35:59;11.73;;;7.80;;
62711;SDS011;48772;55.586;37.730;2023-03-24T08:38:25;11.82;;;8.35;;
62711;SDS011;48772;55.586;37.730;2023-03-24T08:40:59;9.07;;;6.72;;
62711;SDS011;48772;55.586;37.730;2023-03-24T08:43:27;10.80;;;8.25;;
62711;SDS011;48772;55.586;37.730;2023-03-24T08:45:57;11.57;;;7.88;;
62711;SDS011;48772;55.586;37.730;2023-03-24T08:48:24;11.68;;;8.68;;
62711;SDS011;48772;55.586;37.730;2023-03-24T08:50:50;7.97;;;6.63;;
62711;SDS011;48772;55.586;37.730;2023-03-24T08:53:15;11.90;;;8.60;;
62711;SDS011;48772;55.586;37.730;2023-03-24T08:55:41;11.60;;;8.63;;
62711;SDS011;48772;55.586;37.730;2023-03-24T08:58:11;11.63;;;8.63;;
62711;SDS011;48772;55.586;37.730;2023-03-24T09:00:42;8.85;;;6.90;;
62711;SDS011;48772;55.586;37.730;2023-03-24T09:03:11;10.98;;;8.07;;
62711;SDS011;48772;55.586;37.730;2023-03-24T09:05:39;9.88;;;7.78;;
62711;SDS011;48772;55.586;37.730;2023-03-24T09:08:05;8.25;;;6.10;;
62711;SDS011;48772;55.586;37.730;2023-03-24T09:10:32;10.90;;;7.45;;
62711;SDS011;48772;55.586;37.730;2023-03-24T09:12:58;10.10;;;6.50;;
62711;SDS011;48772;55.586;37.730;2023-03-24T09:15:23;8.65;;;6.45;;
62711;SDS011;48772;55.586;37.730;2023-03-24T09:17:49;8.80;;;7.07;;
62711;SDS011;48772;55.586;37.730;2023-03-24T09:20:15;9.43;;;6.65;;
62711;SDS011;48772;55.586;37.730;2023-03-24T09:22:43;6.93;;;5.00;;
62711;SDS011;48772;55.586;37.730;2023-03-24T09:25:11;7.07;;;5.97;;
62711;SDS011;48772;55.586;37.730;2023-03-24T09:27:40;8.75;;;5.05;;
62711;SDS011;48772;55.586;37.730;2023-03-24T09:30:06;5.68;;;5.05;;
62711;SDS011;48772;55.586;37.730;2023-03-24T09:32:33;6.82;;;4.88;;
62711;SDS011;48772;55.586;37.730;2023-03-24T09:35:00;8.82;;;5.47;;
62711;SDS011;48772;55.586;37.730;2023-03-24T09:37:29;8.85;;;4.60;;
62711;SDS011;48772;55.586;37.730;2023-03-24T09:39:56;5.65;;;4.22;;
62711;SDS011;48772;55.586;37.730;2023-03-24T09:42:25;5.88;;;4.85;;
62711;SDS011;48772;55.586;37.730;2023-03-24T09:44:56;7.05;;;5.03;;
62711;SDS011;48772;55.586;37.730;2023-03-24T09:47:30;9.77;;;5.45;;
62711;SDS011;48772;55.586;37.730;2023-03-24T09:50:01;5.90;;;5.30;;
62711;SDS011;48772;55.586;37.730;2023-03-24T09:52:39;10.30;;;5.57;;
62711;SDS011;48772;55.586;37.730;2023-03-24T09:55:12;5.88;;;4.90;;
62711;SDS011;48772;55.586;37.730;2023-03-24T09:57:44;7.82;;;4.95;;
62711;SDS011;48772;55.586;37.730;2023-03-24T10:00:16;4.13;;;3.72;;
62711;SDS011;48772;55.586;37.730;2023-03-24T10:02:45;9.45;;;4.65;;
62711;SDS011;48772;55.586;37.730;2023-03-24T10:05:12;6.38;;;4.82;;
62711;SDS011;48772;55.586;37.730;2023-03-24T10:07:42;3.65;;;2.85;;
62711;SDS011;48772;55.586;37.730;2023-03-24T10:13:16;5.53;;;3.03;;
62711;SDS011;48772;55.586;37.730;2023-03-24T10:15:51;3.30;;;2.45;;
62711;SDS011;48772;55.586;37.730;2023-03-24T10:21:23;4.43;;;3.65;;
62711;SDS011;48772;55.586;37.730;2023-03-24T10:26:42;2.55;;;2.33;;
62711;SDS011;48772;55.586;37.730;2023-03-24T10:29:26;4.03;;;3.53;;
62711;SDS011;48772;55.586;37.730;2023-03-24T10:31:59;7.95;;;4.57;;
62711;SDS011;48772;55.586;37.730;2023-03-24T10:34:46;3.63;;;2.67;;
62711;SDS011;48772;55.586;37.730;2023-03-24T10:37:17;4.75;;;3.58;;
62711;SDS011;48772;55.586;37.730;2023-03-24T10:39:43;3.78;;;3.40;;
62711;SDS011;48772;55.586;37.730;2023-03-24T10:42:12;4.63;;;3.40;;
62711;SDS011;48772;55.586;37.730;2023-03-24T10:44:43;3.53;;;3.17;;
62711;SDS011;48772;55.586;37.730;2023-03-24T10:47:11;6.20;;;3.47;;
62711;SDS011;48772;55.586;37.730;2023-03-24T10:49:41;4.40;;;3.45;;
62711;SDS011;48772;55.586;37.730;2023-03-24T10:52:17;7.65;;;4.47;;
62711;SDS011;48772;55.586;37.730;2023-03-24T10:54:57;5.95;;;4.40;;
62711;SDS011;48772;55.586;37.730;2023-03-24T10:57:30;4.70;;;3.30;;
62711;SDS011;48772;55.586;37.730;2023-03-24T10:59:57;5.55;;;3.53;;
62711;SDS011;48772;55.586;37.730;2023-03-24T11:02:27;4.60;;;3.50;;
62711;SDS011;48772;55.586;37.730;2023-03-24T11:04:59;3.00;;;2.75;;
62711;SDS011;48772;55.586;37.730;2023-03-24T11:07:29;4.50;;;3.78;;
62711;SDS011;48772;55.586;37.730;2023-03-24T11:10:01;3.67;;;3.00;;
62711;SDS011;48772;55.586;37.730;2023-03-24T11:12:33;3.58;;;3.17;;
62711;SDS011;48772;55.586;37.730;2023-03-24T11:15:11;5.45;;;3.33;;
62711;SDS011;48772;55.586;37.730;2023-03-24T11:17:40;6.85;;;4.03;;
62711;SDS011;48772;55.586;37.730;2023-03-24T11:20:16;5.40;;;3.22;;
62711;SDS011;48772;55.586;37.730;2023-03-24T11:23:03;4.32;;;3.67;;
62711;SDS011;48772;55.586;37.730;2023-03-24T11:25:35;4.32;;;3.35;;
62711;SDS011;48772;55.586;37.730;2023-03-24T11:28:06;6.22;;;4.40;;
62711;SDS011;48772;55.586;37.730;2023-03-24T11:30:51;4.18;;;3.60;;
62711;SDS011;48772;55.586;37.730;2023-03-24T11:33:26;3.78;;;2.85;;
62711;SDS011;48772;55.586;37.730;2023-03-24T11:35:57;5.43;;;3.80;;
62711;SDS011;48772;55.586;37.730;2023-03-24T11:38:32;4.88;;;4.00;;
62711;SDS011;48772;55.586;37.730;2023-03-24T11:41:00;6.45;;;3.70;;
62711;SDS011;48772;55.586;37.730;2023-03-24T11:43:29;6.60;;;4.70;;
62711;SDS011;48772;55.586;37.730;2023-03-24T11:46:16;4.88;;;3.97;;
62711;SDS011;48772;55.586;37.730;2023-03-24T11:51:17;5.22;;;3.95;;
62711;SDS011;48772;55.586;37.730;2023-03-24T11:53:51;4.50;;;4.10;;
62711;SDS011;48772;55.586;37.730;2023-03-24T11:56:25;4.38;;;3.97;;
62711;SDS011;48772;55.586;37.730;2023-03-24T11:58:56;5.50;;;4.07;;
62711;SDS011;48772;55.586;37.730;2023-03-24T12:01:59;3.85;;;3.20;;
62711;SDS011;48772;55.586;37.730;2023-03-24T12:10:26;4.97;;;3.28;;
62711;SDS011;48772;55.586;37.730;2023-03-24T12:13:18;4.97;;;3.78;;
62711;SDS011;48772;55.586;37.730;2023-03-24T12:27:28;9.98;;;5.85;;
62711;SDS011;48772;55.586;37.730;2023-03-24T12:39:10;7.15;;;5.05;;
62711;SDS011;48772;55.586;37.730;2023-03-24T12:56:28;3.83;;;3.40;;
62711;SDS011;48772;55.586;37.730;2023-03-24T12:58:59;4.15;;;2.85;;
62711;SDS011;48772;55.586;37.730;2023-03-24T13:04:15;4.68;;;3.10;;
62711;SDS011;48772;55.586;37.730;2023-03-24T13:12:17;6.30;;;3.60;;
62711;SDS011;48772;55.586;37.730;2023-03-24T13:14:48;5.28;;;3.25;;
62711;SDS011;48772;55.586;37.730;2023-03-24T13:17:34;3.28;;;2.90;;
62711;SDS011;48772;55.586;37.730;2023-03-24T13:20:04;4.05;;;3.20;;
62711;SDS011;48772;55.586;37.730;2023-03-24T13:22:36;3.90;;;2.90;;
62711;SDS011;48772;55.586;37.730;2023-03-24T13:25:03;8.25;;;3.55;;
62711;SDS011;48772;55.586;37.730;2023-03-24T13:27:44;3.42;;;3.13;;
62711;SDS011;48772;55.586;37.730;2023-03-24T13:30:24;4.05;;;2.58;;
62711;SDS011;48772;55.586;37.730;2023-03-24T13:33:15;3.88;;;2.65;;
62711;SDS011;48772;55.586;37.730;2023-03-24T13:41:05;5.13;;;2.95;;
62711;SDS011;48772;55.586;37.730;2023-03-24T13:43:35;4.10;;;3.28;;
62711;SDS011;48772;55.586;37.730;2023-03-24T13:46:04;4.63;;;3.25;;
62711;SDS011;48772;55.586;37.730;2023-03-24T13:48:38;5.57;;;3.10;;
62711;SDS011;48772;55.586;37.730;2023-03-24T13:53:56;3.90;;;3.03;;
62711;SDS011;48772;55.586;37.730;2023-03-24T13:59:31;6.97;;;3.22;;
62711;SDS011;48772;55.586;37.730;2023-03-24T14:05:05;3.67;;;2.33;;
62711;SDS011;48772;55.586;37.730;2023-03-24T14:10:29;4.25;;;3.15;;
62711;SDS011;48772;55.586;37.730;2023-03-24T14:13:03;4.60;;;2.88;;
62711;SDS011;48772;55.586;37.730;2023-03-24T14:15:44;4.00;;;2.80;;
62711;SDS011;48772;55.586;37.730;2023-03-24T14:23:39;8.00;;;3.45;;
62711;SDS011;48772;55.586;37.730;2023-03-24T14:26:27;2.22;;;2.00;;
62711;SDS011;48772;55.586;37.730;2023-03-24T14:28:58;4.45;;;2.08;;
62711;SDS011;48772;55.586;37.730;2023-03-24T14:31:33;7.78;;;3.50;;
62711;SDS011;48772;55.586;37.730;2023-03-24T14:34:13;6.13;;;2.80;;
62711;SDS011;48772;55.586;37.730;2023-03-24T14:36:45;3.70;;;2.70;;
62711;SDS011;48772;55.586;37.730;2023-03-24T14:39:32;2.90;;;2.45;;
62711;SDS011;48772;55.586;37.730;2023-03-24T14:42:02;5.10;;;2.65;;
62711;SDS011;48772;55.586;37.730;2023-03-24T14:47:25;4.97;;;3.35;;
62711;SDS011;48772;55.586;37.730;2023-03-24T14:49:56;5.05;;;2.58;;
62711;SDS011;48772;55.586;37.730;2023-03-24T14:52:36;4.97;;;3.20;;
62711;SDS011;48772;55.586;37.730;2023-03-24T14:55:06;3.40;;;2.22;;
62711;SDS011;48772;55.586;37.730;2023-03-24T14:57:39;2.40;;;1.65;;
62711;SDS011;48772;55.586;37.730;2023-03-24T15:03:00;6.20;;;2.97;;
62711;SDS011;48772;55.586;37.730;2023-03-24T15:05:42;4.10;;;2.00;;
62711;SDS011;48772;55.586;37.730;2023-03-24T15:08:12;12.80;;;2.80;;
62711;SDS011;48772;55.586;37.730;2023-03-24T15:10:52;3.13;;;1.75;;
62711;SDS011;48772;55.586;37.730;2023-03-24T15:13:38;2.65;;;2.22;;
62711;SDS011;48772;55.586;37.730;2023-03-24T15:18:34;3.53;;;2.20;;
62711;SDS011;48772;55.586;37.730;2023-03-24T15:21:11;1.95;;;1.52;;
62711;SDS011;48772;55.586;37.730;2023-03-24T15:23:39;2.47;;;1.75;;
62711;SDS011;48772;55.586;37.730;2023-03-24T15:26:10;2.55;;;1.77;;
62711;SDS011;48772;55.586;37.730;2023-03-24T15:28:38;2.58;;;1.73;;
62711;SDS011;48772;55.586;37.730;2023-03-24T15:31:03;3.05;;;2.00;;
62711;SDS011;48772;55.586;37.730;2023-03-24T15:33:37;4.70;;;2.42;;
62711;SDS011;48772;55.586;37.730;2023-03-24T15:36:11;4.50;;;2.20;;
62711;SDS011;48772;55.586;37.730;2023-03-24T15:38:43;2.65;;;1.95;;
62711;SDS011;48772;55.586;37.730;2023-03-24T15:41:11;4.15;;;2.15;;
62711;SDS011;48772;55.586;37.730;2023-03-24T15:43:49;4.25;;;1.98;;
62711;SDS011;48772;55.586;37.730;2023-03-24T15:46:28;4.22;;;2.65;;
62711;SDS011;48772;55.586;37.730;2023-03-24T15:48:55;5.30;;;2.22;;
62711;SDS011;48772;55.586;37.730;2023-03-24T15:54:19;9.27;;;3.75;;
62711;SDS011;48772;55.586;37.730;2023-03-24T15:57:01;7.13;;;3.30;;
62711;SDS011;48772;55.586;37.730;2023-03-24T15:59:48;4.13;;;2.77;;
62711;SDS011;48772;55.586;37.730;2023-03-24T16:04:48;4.05;;;2.80;;
62711;SDS011;48772;55.586;37.730;2023-03-24T16:07:21;7.60;;;2.70;;
62711;SDS011;48772;55.586;37.730;2023-03-24T16:09:57;5.32;;;3.22;;
62711;SDS011;48772;55.586;37.730;2023-03-24T16:12:36;9.02;;;4.03;;
62711;SDS011;48772;55.586;37.730;2023-03-24T16:15:03;3.20;;;2.50;;
62711;SDS011;48772;55.586;37.730;2023-03-24T16:17:30;7.00;;;3.80;;
62711;SDS011;48772;55.586;37.730;2023-03-24T16:19:57;4.75;;;2.45;;
62711;SDS011;48772;55.586;37.730;2023-03-24T16:22:23;6.15;;;3.60;;
62711;SDS011;48772;55.586;37.730;2023-03-24T16:24:49;6.85;;;3.13;;
62711;SDS011;48772;55.586;37.730;2023-03-24T16:27:15;6.50;;;3.20;;
62711;SDS011;48772;55.586;37.730;2023-03-24T16:29:41;6.93;;;3.63;;
62711;SDS011;48772;55.586;37.730;2023-03-24T16:32:07;7.50;;;4.20;;
62711;SDS011;48772;55.586;37.730;2023-03-24T16:34:34;6.32;;;3.22;;
62711;SDS011;48772;55.586;37.730;2023-03-24T16:37:01;8.10;;;3.20;;
62711;SDS011;48772;55.586;37.730;2023-03-24T16:39:28;9.70;;;4.25;;
62711;SDS011;48772;55.586;37.730;2023-03-24T16:41:55;4.40;;;2.88;;
62711;SDS011;48772;55.586;37.730;2023-03-24T16:44:22;2.70;;;2.30;;
62711;SDS011;48772;55.586;37.730;2023-03-24T16:46:50;2.40;;;2.20;;
62711;SDS011;48772;55.586;37.730;2023-03-24T16:49:17;3.72;;;2.45;;
62711;SDS011;48772;55.586;37.730;2023-03-24T16:51:44;3.35;;;2.45;;
62711;SDS011;48772;55.586;37.730;2023-03-24T16:54:10;5.93;;;2.75;;
62711;SDS011;48772;55.586;37.730;2023-03-24T16:56:37;5.93;;;2.92;;
62711;SDS011;48772;55.586;37.730;2023-03-24T16:59:03;4.60;;;2.33;;
62711;SDS011;48772;55.586;37.730;2023-03-24T17:06:33;3.80;;;2.10;;
62711;SDS011;48772;55.586;37.730;2023-03-24T17:09:01;3.55;;;1.95;;
62711;SDS011;48772;55.586;37.730;2023-03-24T17:11:36;5.45;;;3.08;;
62711;SDS011;48772;55.586;37.730;2023-03-24T17:14:04;3.20;;;1.85;;
62711;SDS011;48772;55.586;37.730;2023-03-24T17:16:33;5.22;;;2.60;;
62711;SDS011;48772;55.586;37.730;2023-03-24T17:19:04;9.02;;;2.53;;
62711;SDS011;48772;55.586;37.730;2023-03-24T17:21:31;6.82;;;3.35;;
62711;SDS011;48772;55.586;37.730;2023-03-24T17:23:58;6.25;;;3.10;;
62711;SDS011;48772;55.586;37.730;2023-03-24T17:26:24;4.03;;;2.63;;
62711;SDS011;48772;55.586;37.730;2023-03-24T17:28:50;5.47;;;2.88;;
62711;SDS011;48772;55.586;37.730;2023-03-24T17:31:16;4.63;;;2.40;;
62711;SDS011;48772;55.586;37.730;2023-03-24T17:33:42;3.67;;;2.30;;
62711;SDS011;48772;55.586;37.730;2023-03-24T17:36:12;6.85;;;2.80;;